Covington, VA

11:15 PM EDT on September 15, 2014 (GMT -0400)
Roanoke Regional-Woodrum | Change Station
CLOSE
Current Station
Airport
Location: Roanoke,
Elevation: 1175 ft
Nearby Weather Stations

Elev 1175 ft 37.32 °N, 79.97 °W | Updated 21 minutes ago

Mostly Cloudy
Mostly Cloudy
68 °F
Feels Like 68 °F
N
0
Wind Variable Wind from North

Today
High -- | Low -- °F
--% Chance of Precip.
Yesterday
High -- | Low -- °F
Precip. -- in
7:02 AM 7:28 PM
Waning Gibbous, 50% visible
Pressure 30.09 in
Visibility 10.0 miles
Clouds Overcast 2400 ft
Dew Point 63 °F
Humidity 84%
Rainfall 0.00 in
Snow Depth Not available.
UV 0 out of 12
Pollen 7.20 out of 12
Air Quality Not available.
Flu Activity Not available.
METAR KROA 160254Z 00000KT 10SM OVC024 20/17 A3011 RMK AO2 SLP188 T02000172 58005

More Conditions Fewer Conditions

Pressure 30.09 in
Visibility 10.0 miles
Clouds Overcast 2400 ft
Dew Point 63 °F
Humidity 84%
Rainfall 0.00 in
Snow Depth Not available.
UV 0 out of 12
Pollen 7.20 out of 12
Air Quality Not available.
Flu Activity Not available.
METAR KROA 160254Z 00000KT 10SM OVC024 20/17 A3011 RMK AO2 SLP188 T02000172 58005

More Conditions Fewer Conditions

10-Day Weather Forecast

Almanac

Astronomy

Sep. 15, 2014 Rise Set
Actual Time 7:02 AM EDT 7:28 PM EDT
Civil Twilight 6:35 AM EDT 7:54 PM EDT
Nautical Twilight 6:04 AM EDT 8:25 PM EDT
Astronomical Twilight 5:33 AM EDT 8:56 PM EDT
Moon No Moon Rise 1:54 PM EDT (9/15)
Length of Visible Light 13h 18m
Length of Day
12h 26m
Tomorrow will be 2m 24s shorter.
Waning Gibbous, 50% of the Moon is Illuminated
Today
Waning Gibbous
Sep 24
New
Oct 1
First Quarter
Oct 8
Full
Oct 15
Last Quarter

Today's Extremes

State Highs State Lows

Community

WunderPhotos

Upload Photos

1,753,694 photos uploaded!

Nearby

Snow Depth

Station Depth Elevation
No new snow has been reported.

Earthquake Activity

City Distance Mag. Time & Date
No recent earthquake activity has been reported nearby.
Minimum magnitude displayed is 2.5.

Coastal Water Temperatures

Place Temperature
No Stations Reporting

Nearby Weather Stations